Portada
METAR-TAF:

METAR-TAF

Aeroports :

Farnborough, Anglaterra

latitud: 51-17N, longitud: 000-46W, altitud: 65 m

Observació

L'informe es va fer fa 25 minuts, a les 09:20 UTC
Vent 12 kt del Oest/Sud-Oest, variant entre Sud/Sud-Oest i Oest
Temperatura 18°C
Humitat 68%
Pressió 1025 hPa
Visibilitat 10 km o més

METAR: EGLF 220920Z AUTO 24012KT 210V270 9999 NCD 18/12 Q1025

Hora: 10:45 (09:45 UTC)

Pronòstic

L'informe es va fer fa 1 hora i 43 minuts, a les 08:02 UTC
Pronòstic vàlid del 22 a les 09 UTC al 22 a les 18 UTC
Vent 10 kt del Oest/Sud-Oest
Visibilitat 10 km o més
Escasses núvols a una alçada de 4500 ft

TAF: EGLF 220802Z 2209/2218 24010KT 9999 FEW045

Observacions i pronòstics meteorològics de més de 4000 aeroports (METAR i TAF).

Les estacions disponibles són els punts grocs i vermells al mapa.

Posi el ratolí al punt desitjat per veure el nom de l'estació.

Feu clic per veure les observacions i els pronòstics meteorològics.

Per canviar el mapa: feu clic els botons verds amb una creu de color negre per apropar; al botó verd amb un guió per allunyar la imatge; o en les fletxes verdes per a mapes adjacents.


METAR-TAF: